Mustafa Unal

Jefe de ojeadores - Trabzonspor
24 Sep 2028
Domingo
Continuar

Personalidad

Adaptabilidad (18) Ambición (1) Controversia (7) Lealtad (19) Presión (19) Profesionalismo (2) Deportividad (19) Temperamento (20)

Perfil

Estilo de dirección Democrático
Licencia Continental B
Determinación 14
Gestión de personas 9
Motivación 12
Disciplina 13
Satisfacción laboral
100%
Fatiga
0%
Cargo Jefe de ojeadores
Salario 57.3K p/s
Contrato 14.03.2029

Rendimiento

Comportamiento Bueno
Efectividad del entrenamiento
45%
Desarrollo de jugadores
25%
Prevención de lesiones
75%
Implementación táctica
60%

Eventos recientes

Asistió a una reunión de captación ahora
Evaluó a un jugador ahora
Evaluó a un jugador 7d atrás
Asistió a una reunión de captación 7d atrás
Evaluó a un jugador 7d atrás
Evaluó a un jugador 7d atrás
Evaluó a un jugador 7d atrás
Evaluó a un jugador 7d atrás

Actualmente siguiendo

256
Jugador Club Estado Habilidad Confianza Observado Última observación Último voto
Matías Arezo Penarol Activo 129 / 124 40% 4 21.09.2028 -
Wessam Abou Ali Columbus Crew Activo 127 / 131 40% 2 21.09.2028 -
Alan Velasco Fortaleza Activo 134 / 134 40% 1 21.09.2028 -
Alejandro Piedrahita Deportivo Pereira Activo 124 / 129 40% 3 20.09.2028 -
Luca Langoni Columbus Crew Activo 137 / 126 40% 2 20.09.2028 -
Morgan Guilavogui Real Salt Lake Activo 137 / 123 40% 1 20.09.2028 -
Brayan Moreno Santa Fe Activo 121 / 114 40% 5 19.09.2028 -
Marcelo Ryan Vissel Kobe Activo 141 / 128 40% 6 19.09.2028 -
Endrick Boca Juniors Activo 158 / 160 40% 1 19.09.2028 -
Agustín Rodríguez Juventud Activo 124 / 127 40% 4 17.09.2028 -
Alejo Veliz Bahia Activo 140 / 136 40% 1 17.09.2028 -
Gonzalo Plata Nacional Activo 139 / 133 40% 2 15.09.2028 -
Louis Munteanu Charlotte Football Club Activo 136 / 130 40% 2 13.09.2028 -
Liel Abada Inter Miami CF Activo 140 / 143 40% 2 13.09.2028 -
Daniel Barrea Godoy Cruz Activo 121 / 118 40% 4 12.09.2028 -
Alejo Cruz Juventud Activo 120 / 126 40% 2 12.09.2028 -
Kévin Denkey FC Cincinnati Activo 133 / 130 40% 3 11.09.2028 -
Cheikh Sabaly Vancouver Whitecaps Activo 124 / 128 40% 3 11.09.2028 -
Bongokuhle Hlongwane LA Galaxy Activo 137 / 126 40% 1 11.09.2028 -
Talles Magno New York City Activo 140 / 138 40% 3 10.09.2028 -
Emiliano Gómez Boston River Activo 117 / 123 40% 3 08.09.2028 -
Julian Herrera Cortulua Activo 123 / 116 40% 2 07.09.2028 -
Leonardo Campana New England Revolution Activo 138 / 127 40% 1 01.09.2028 -
Juan Hurtado Alianza Petrolera Activo 131 / 127 40% 1 31.08.2028 -
Kelvin Flórez Deportes Tolima Activo 124 / 115 40% 1 31.08.2028 -
Musa Barrow ES Setif Activo 143 / 145 40% 4 25.08.2028 -
Mehdi Ghayedi Al Nasr Activo 136 / 128 40% 2 21.08.2028 -
Nicolás Ferreira Wanderers Activo 127 / 117 40% 1 19.08.2028 -
Andrea Pinamonti Lazio Activo 146 / 146 40% 1 19.08.2028 -
Samuele Mulattieri Sassuolo Activo 136 / 139 40% 1 19.08.2028 -
Jon Morcillo Almería Activo 143 / 139 40% 3 15.08.2028 -
Álvaro García Castellón Activo 129 / 131 40% 1 15.08.2028 -
Adam Jakobsen Castellón Activo 126 / 126 40% 1 15.08.2028 -
Jackson Muleka Konyaspor Rechazado 144 / 137 40% 3 11.08.2028 Rechazar
Alemão Rayo Vallecano Activo 134 / 135 40% 2 11.08.2028 -
Semih Kılıçsoy Besiktas Rechazado 143 / 140 40% 1 11.08.2028 Más información
Toni Martínez Levante Activo 144 / 145 40% 1 11.08.2028 -
Oh Hyeon-Gyu Besiktas Activo 131 / 131 40% 17 09.08.2028 -
Chupete Málaga Activo 143 / 141 40% 8 09.08.2028 -
Jayden Danns Bradford City Rechazado 144 / 146 40% 7 09.08.2028 Rechazar
Javi Puado Espanyol Activo 155 / 153 40% 7 09.08.2028 -
Taiwo Awoniyi Middlesbrough Activo 150 / 145 40% 3 09.08.2028 -
Ismaïla Sarr Crystal Palace Activo 156 / 154 40% 1 09.08.2028 -
Rodrigo Muniz Fulham Activo 148 / 146 40% 2 07.08.2028 -
Aral Şimşir Porto Rechazado 147 / 142 40% 6 07.08.2028 Rechazar
Tyrese Campbell Sheffield United Activo 136 / 134 40% 11 06.08.2028 -
Leo Castledine Middlesbrough Activo 140 / 142 40% 1 06.08.2028 -
Sam Nombe Milton Keynes Dons Activo 118 / 118 40% 1 06.08.2028 -
Yousef Salech Cardiff City Activo 140 / 133 40% 10 05.08.2028 -
Brandon Thomas-Asante Blackpool Activo 129 / 128 40% 9 05.08.2028 -
Hugo Duro Valencia Activo 147 / 146 40% 2 03.08.2028 -
Borja Mayoral Getafe Activo 146 / 148 40% 2 03.08.2028 -
Malik Mothersille Stockport County Activo 128 / 123 40% 10 01.08.2028 -
Tyreece Campbell Charlton Athletic Activo 127 / 126 40% 12 01.08.2028 -
Sebastiano Esposito Cagliari Activo 149 / 150 40% 1 01.08.2028 -
Zito Luvumbo Cagliari Activo 141 / 133 40% 2 30.07.2028 -
Róbert Boženík Stoke City Activo 134 / 137 40% 1 30.07.2028 -
Jorge De Frutos Rayo Vallecano Activo 149 / 148 40% 3 29.07.2028 -
Umar Sadiq Valencia Activo 141 / 143 40% 1 29.07.2028 -
Charlie Kelman Barnsley Activo 120 / 118 40% 1 27.07.2028 -
Juanmi Latasa Valladolid Activo 137 / 138 40% 3 25.07.2028 -
Justo Giani Umraniyespor Activo 125 / 129 40% 6 24.07.2028 -
Jay Stansfield Birmingham Activo 139 / 133 40% 1 23.07.2028 -
Sorba Thomas Stoke City Activo 144 / 138 40% 3 17.07.2028 -
Milot Rashica Besiktas Activo 140 / 139 40% 1 17.07.2028 -
Callum O'Hare Sheffield United Activo 139 / 141 40% 7 11.07.2028 -
Miguel Rodríguez Alavés Activo 138 / 143 40% 3 11.07.2028 -
Isaiah Jones Luton Town Activo 136 / 128 40% 1 10.07.2028 -
Harry Wilson Leeds United Activo 156 / 146 40% 1 10.07.2028 -
Matěj Jurásek Doncaster Rovers Activo 127 / 128 40% 1 10.07.2028 -
Lucas Villarruel Konyaspor Rechazado 111 / 110 79% 1 26.06.2028 Rechazar
Jaidon Anthony Derby County Activo 142 / 143 40% 1 26.06.2028 -
Alexandru Maxim Gaziantep Rechazado 117 / 116 79% 1 19.06.2028 Rechazar
Semih Kılıçsoy Besiktas Perdido 139 / 143 40% 6 12.06.2028 Más información
Jorge Salinas Racing Santander Activo 134 / 138 40% 9 08.06.2028 -
Martim Cunha Porto Activo 106 / 116 40% 4 08.06.2028 -
Talles Costa Alanyaspor Perdido 128 / 128 79% 1 07.06.2028 -
Giovanni Leoni Lincoln City Activo 138 / 143 40% 6 06.06.2028 -
Trey Nyoni Rotherham United Activo 141 / 145 40% 7 06.06.2028 -
Enis Bardhi Konyaspor Rechazado 129 / 128 79% 1 03.06.2028 Rechazar
Jackson Muleka Konyaspor Perdido 136 / 129 40% 16 31.05.2028 Rechazar
Bruno Guimarães Real Madrid Activo 171 / 173 40% 2 30.05.2028 -
Andrija Bulatović Chamois Niortais Activo 129 / 136 40% 2 28.05.2028 -
Honest Ahanor Atalanta Activo 137 / 141 40% 3 23.05.2028 -
Jorthy Mokio ADO Den Haag Activo 134 / 135 40% 6 23.05.2028 -
William Osula Wrexham Activo 141 / 133 40% 8 15.05.2028 -
Aaron Collins Milton Keynes Dons Activo 124 / 120 40% 2 15.05.2028 -
Yassir Zabiri Stade Rennais Activo 144 / 145 40% 3 10.05.2028 -
Pau Víctor Braga Activo 150 / 142 40% 2 10.05.2028 -
Bernardo Lima Porto Activo 111 / 116 40% 4 26.04.2028 -
Tyler Fletcher Rotherham United Activo 110 / 118 40% 4 25.04.2028 -
Luis Suárez Sporting CP Activo 160 / 156 40% 2 24.04.2028 -
Abel Ruiz Girona Activo 146 / 145 40% 2 20.04.2028 -
Kang-In Lee Villarreal Activo 167 / 160 40% 2 16.04.2028 -
Christian Kouamé Atlético Mineiro Activo 129 / 128 40% 4 11.04.2028 -
Christos Mouzakitis Hull City Activo 136 / 139 40% 3 08.04.2028 -
Marc Bernal Sevilla Activo 150 / 158 40% 3 31.03.2028 -
Kauã Moraes Flamengo Activo 126 / 138 40% 5 30.03.2028 -
Daniel Banjaqui Benfica Activo 123 / 130 40% 5 30.03.2028 -
Lucas Høgsberg RC Strasbourg Activo 146 / 145 40% 2 29.03.2028 -
Josh Acheampong Everton Activo 143 / 143 40% 4 29.03.2028 -
Matias Siltanen Malmo FF Activo 128 / 131 40% 3 23.03.2028 -
Josh Nichols Oldham Athletic Activo 118 / 128 40% 2 22.03.2028 -
Héctor Fort Real Sociedad Activo 139 / 147 40% 3 22.03.2028 -
Riquelme Thompson-Jones Accrington Stanley Activo 106 / 112 40% 2 18.03.2028 -
Ayden Heaven Portsmouth Activo 148 / 154 40% 2 16.03.2028 -
Izan Merino Málaga Activo 127 / 133 40% 1 15.03.2028 -
Jhon Arias Palmeiras Activo 150 / 144 40% 1 26.01.2028 -
Nuno Moreira Vasco da Gama Activo 140 / 134 40% 1 26.01.2028 -
Karamba Gassama Gaziantep Activo 114 / 117 42% 1 / 1m 19.01.2028 -
Erdem Çetinkaya Kasimpasa Activo 109 / 109 30% 1 / 1m 19.01.2028 -
Allan Saint-Maximin Charlotte Football Club Activo 148 / 143 40% 1 17.01.2028 -
Pedro de la Vega Columbus Crew Activo 142 / 143 40% 1 17.01.2028 -
Mao Hosoya Santos Rechazado 134 / 135 67% 1 01.01.2028 Rechazar
Bitello Universidad de Chile Rechazado 135 / 135 68% 1 01.01.2028 Rechazar
Samuel Velásquez Atletico Nacional Activo 127 / 119 40% 10 11.12.2027 -
Renan Lodi Atlético Mineiro Activo 140 / 131 40% 3 11.12.2027 -
Victor Hernandez Santa Fe Activo 120 / 128 40% 5 09.12.2027 -
Fernando Bersano Madryn Activo 117 / 118 40% 3 09.12.2027 -
José Caldera Deportivo Cali Activo 124 / 119 40% 3 07.12.2027 -
Bruno Leyes Godoy Cruz Activo 121 / 123 40% 11 06.12.2027 -
Facundo Mura Inter Miami CF Activo 130 / 125 40% 8 06.12.2027 -
Murat Celik Tskhinvali Activo 120 / 123 40% 9 05.12.2027 -
Matheus Bidu Corinthians Activo 131 / 125 40% 1 05.12.2027 -
Julián Palacios Envigado Activo 119 / 125 40% 7 03.12.2027 -
Mateo Garavito Deportivo Pasto Activo 128 / 128 40% 6 02.12.2027 -
Diego Hernández Aguilas Doradas Activo 127 / 128 40% 7 01.12.2027 -
Azizbek To'lqinbekov Bunyodkor Activo 92 / 106 40% 1 30.11.2027 -
Joaquín Varela Independiente Medellin Activo 126 / 123 40% 11 29.11.2027 -
Andrés Herrera Columbus Crew Activo 120 / 117 40% 3 28.11.2027 -
Nazareno Colombo Racing Club Activo 129 / 123 40% 1 27.11.2027 -
Malte Amundsen Columbus Crew Activo 122 / 123 40% 1 25.11.2027 -
Camilo Martinez Cortulua Activo 131 / 122 40% 8 24.11.2027 -
Jan Carlos Ángulo Deportes Tolima Activo 115 / 121 40% 6 23.11.2027 -
Jermein Peña Junior Activo 128 / 117 40% 7 18.11.2027 -
Pablo Cardona Cortulua Activo 125 / 110 40% 3 15.11.2027 -
José Ortiz Atletico Bucaramanga Activo 129 / 114 40% 6 10.11.2027 -
Cristian Graciano Deportivo Pasto Activo 112 / 115 40% 4 09.11.2027 -
Adrian Skogmar Malmo FF Activo 120 / 129 40% 1 05.11.2027 -
Edvard Pettersen Sandefjord Activo 101 / 113 40% 1 01.11.2027 -
Rui Modesto Vancouver Whitecaps Activo 129 / 119 40% 1 22.10.2027 -
Emiliano Álvarez Progreso Activo 124 / 125 40% 2 03.10.2027 -
Franco Díaz Temperley Activo 131 / 126 40% 2 01.10.2027 -
Josen Escobar Patriotas Activo 114 / 126 40% 1 22.09.2027 -
Anton Salétros Chicago Fire Activo 130 / 134 40% 2 23.08.2027 -
Niklas Dorsch Toronto FC Activo 129 / 127 40% 1 23.08.2027 -
Matthew Targett Hull City Activo 134 / 131 40% 1 09.08.2027 -
Christopher Opéri Basaksehir Activo 135 / 132 40% 3 02.08.2027 -
Azor Matusiwa Ipswich Town Activo 138 / 141 40% 2 02.08.2027 -
Shea Charles Southampton Activo 144 / 141 40% 1 02.08.2027 -
Samuel Edozie Southampton Activo 135 / 133 40% 2 28.07.2027 -
John McGinn Aston Villa Activo 152 / 149 40% 1 28.07.2027 -
Ali Ahmed Norwich City Activo 127 / 131 40% 1 28.07.2027 -
Hidemasa Morita Hull City Activo 141 / 147 40% 1 19.07.2027 -
Oladapo Afolayan Blackburn Rovers Activo 131 / 128 40% 2 13.07.2027 -
Andre Brooks Sheffield United Activo 128 / 134 40% 1 13.07.2027 -
Ianis Hagi Alanyaspor Rechazado 132 / 128 40% 2 28.06.2027 Más información
Diogo Gonçalves Konyaspor Activo 133 / 126 40% 1 22.06.2027 -
Václav Černý Besiktas Rechazado 146 / 141 40% 3 14.06.2027 Rechazar
Ryoya Morishita Blackburn Rovers Activo 128 / 129 40% 1 03.06.2027 -
Yunus Akgün Galatasaray Activo 140 / 140 40% 1 02.06.2027 -
Tatsuhiro Sakamoto Coventry City Activo 131 / 128 40% 1 02.06.2027 -
Ilyas Ansah Hull City Activo 131 / 135 40% 10 25.05.2027 -
Wilson Isidor Sunderland Activo 137 / 135 40% 7 24.05.2027 -
Thiago Brentford Activo 145 / 144 40% 1 23.05.2027 -
Bertuğ Yıldırım Basaksehir Activo 128 / 127 40% 9 21.05.2027 -
Mohamed-Ali Cho Hull City Activo 133 / 140 40% 13 20.05.2027 -
Nicolò Zaniolo Udinese Activo 143 / 145 40% 6 16.05.2027 -
Lorent Tolaj Plymouth Argyle Activo 120 / 116 40% 3 14.05.2027 -
Stiven Shpendi Empoli Activo 125 / 121 40% 1 14.05.2027 -
Josh Coburn Millwall Activo 122 / 119 40% 6 13.05.2027 -
Rocco Vata Watford Activo 126 / 123 40% 8 11.05.2027 -
Marezi Portsmouth Activo 121 / 122 40% 3 09.05.2027 -
Eddie Nketiah Crystal Palace Rechazado 143 / 140 40% 6 03.05.2027 Rechazar
Richard Koné Queens Park Rangers Activo 123 / 126 40% 1 02.05.2027 -
Aune Heggebø West Bromwich Albion Activo 127 / 131 40% 5 22.04.2027 -
Sam Greenwood Bristol City Activo 126 / 122 40% 3 10.04.2027 -
Mateo Pellegrino Fiorentina Activo 143 / 138 40% 1 25.03.2027 -
Fábio Carvalho Brentford Activo 141 / 141 40% 4 13.03.2027 -
Mohammad Hosseini Malavan Activo 121 / 120 40% 4 12.03.2027 -
Majid Moharrami Rah Ahan Activo 109 / 114 40% 1 09.03.2027 -
Lorenzo Colombo Genoa Activo 138 / 137 40% 1 09.03.2027 -
Patrick Agyemang Derby County Activo 127 / 126 40% 1 11.02.2027 -
Lassina Traoré Shakhtar Activo 128 / 120 40% 1 05.02.2027 -
Jørgen Strand Larsen Brighton Activo 147 / 142 40% 1 02.02.2027 -
Joe Gelhardt Hull City Activo 130 / 132 40% 1 01.02.2027 -
Gabriel Sara Galatasaray Activo 145 / 143 40% 4 27.01.2027 -
Brooke Norton-Cuffy Hull City Activo 135 / 139 40% 2 12.01.2027 -
Kenny Tete Fulham Activo 147 / 138 40% 1 12.01.2027 -
Pedro Porro Tottenham Activo 148 / 151 40% 1 12.01.2027 -
Florentino Luís Ipswich Town Activo 134 / 136 40% 2 01.01.2027 -
Marvin Keller Chelsea Rechazado 136 / 137 67% 1 01.01.2027 Rechazar
Max Johnston Derby County Activo 133 / 129 40% 1 30.12.2026 -
Jacques Ekomié Wrexham Activo 135 / 127 40% 1 30.12.2026 -
Sindre Walle Egeli Udinese Activo 122 / 133 40% 5 28.12.2026 -
Milan van Ewijk Coventry City Activo 137 / 126 40% 2 25.12.2026 -
Luke McNally Bristol City Activo 133 / 129 40% 1 25.12.2026 -
Aidan Morris Middlesbrough Activo 126 / 128 40% 1 25.12.2026 -
Dara O'Shea Ipswich Town Activo 132 / 136 40% 3 24.12.2026 -
Jacob Greaves Ipswich Town Activo 131 / 138 40% 2 23.12.2026 -
Adam Randell Bristol City Activo 122 / 129 40% 1 23.12.2026 -
Wilfried Singo Galatasaray Activo 139 / 139 40% 4 21.12.2026 -
Anel Ahmedhodžić Burnley Activo 130 / 136 40% 1 21.12.2026 -
Younes El Bahraoui Al-Taawoun Activo 101 / 119 40% 5 19.12.2026 -
Lorenzo De Leo Renate Activo 97 / 104 40% 1 19.12.2026 -
Will Lankshear Middlesbrough Activo 118 / 127 40% 5 17.12.2026 -
Edmund Baidoo St. Gallen Activo 125 / 124 40% 6 16.12.2026 -
Nicolas Madsen Queens Park Rangers Activo 132 / 131 40% 1 15.12.2026 -
Dinis Rodrigues Napoli Activo 106 / 113 40% 1 13.12.2026 -
Raoul Bellanova Atalanta Activo 156 / 146 40% 1 11.12.2026 -
Keane Lewis-Potter Brentford Activo 140 / 147 40% 1 11.12.2026 -
Luciano Inverso Betis Activo 115 / 118 40% 4 09.12.2026 -
Ezekiel Kwame Alladoh Philadelphia Union Activo 118 / 125 40% 3 07.12.2026 -
George Brown Sheffield Wednesday Activo 105 / 101 40% 1 07.12.2026 -
Oliver Skipp Leicester City Activo 135 / 126 40% 1 05.12.2026 -
Rubens Dinamo Moscow Activo 126 / 130 40% 1 03.12.2026 -
Jalal Abdullai Molde Activo 112 / 115 40% 3 29.11.2026 -
Matías Contrera Hrvatski Dragovoljac Activo 102 / 101 40% 2 29.11.2026 -
Sam Amo-Ameyaw RC Strasbourg Activo 120 / 133 40% 5 27.11.2026 -
Max Bird Birmingham Activo 128 / 127 40% 1 27.11.2026 -
Bogdan Petrović TSC Activo 99 / 113 40% 7 21.11.2026 -
Mihailo Ivanović Aston Villa Activo 122 / 130 40% 1 21.11.2026 -
Alexander Lyng SonderjyskE Activo 105 / 117 40% 5 15.11.2026 -
Mathys Tel Tottenham Activo 148 / 149 40% 2 15.11.2026 -
Nikolay Zlatev Cherno More Activo 101 / 102 40% 7 11.11.2026 -
Tiago Djaló Besiktas Activo 139 / 128 40% 1 11.11.2026 -
Yacine Adli Al-Shabab Activo 146 / 137 40% 1 04.11.2026 -
Maximo Ingravidi Colón Activo 103 / 108 40% 3 02.11.2026 -
Gedson Fernandes Spartak Moscow Activo 133 / 134 40% 3 24.10.2026 -
Diego Gómez Brighton Activo 137 / 144 40% 1 24.10.2026 -
Thiago Ponce Rosario Central Activo 88 / 109 40% 3 17.10.2026 -
Kings Kangwa Panathinaikos Activo 129 / 133 40% 1 12.10.2026 -
Conrad Wallem Djurgarden Activo 120 / 122 40% 1 12.10.2026 -
Gabriel Pereira FC Copenhagen Activo 122 / 122 40% 1 12.10.2026 -
Thiago Perugini San Lorenzo Activo 95 / 95 40% 2 08.10.2026 -
Gustavo Mantuan Zenit Activo 130 / 129 40% 1 08.10.2026 -
Youssoufa Moukoko FC Copenhagen Activo 127 / 131 40% 2 04.10.2026 -
Don-Angelo Konadu Ajax Activo 105 / 117 40% 2 27.09.2026 -
Hojjat Ahmadi Esteghlal Khuzestan Activo 89 / 95 40% 2 26.09.2026 -
Taiyo Koga Kashiwa Reysol Activo 137 / 132 40% 1 26.09.2026 -
Lucas Sanabria LA Galaxy Activo 133 / 137 40% 1 22.09.2026 -
Alexandr Siljanov Lokomotiv Moscow Activo 122 / 125 40% 1 18.09.2026 -
Festy Ebosele Basaksehir Activo 129 / 127 40% 1 18.09.2026 -
João Cancelo Spartak Moscow Activo 147 / 146 40% 2 14.09.2026 -
Andrés Cubas Vancouver Whitecaps Activo 126 / 128 40% 1 14.09.2026 -
Juan Manuel Sanabria Real Salt Lake Activo 127 / 116 40% 1 13.09.2026 -
Cristian Roldan Seattle Sounders Activo 123 / 122 40% 1 12.09.2026 -
Lucas Torreira Galatasaray Activo 148 / 149 40% 1 10.09.2026 -
Lasse Berg Johnsen Sporting Kansas City Activo 126 / 118 40% 1 10.09.2026 -
Amir Murillo Besiktas Rechazado 136 / 139 72% 2 09.09.2026 Rechazar
Anthony Smits AZ Activo 101 / 114 40% 1 03.09.2026 -
Mikel Gogorza Brondby Activo 120 / 134 40% 1 03.09.2026 -
Lautaro Giannetti Antalyaspor Rechazado 111 / 119 72% 1 31.08.2026 Rechazar
Eduard Löwen San Jose Earthquakes Activo 120 / 129 40% 1 17.08.2026 -
Deniz Ertaş Konyaspor Rechazado 112 / 129 72% 1 03.08.2026 Rechazar
Miguel Almirón Atlanta United FC Activo 141 / 128 40% 1 03.08.2026 -